sensor_id;sensor_type;location;lat;lon;timestamp;P1;durP1;ratioP1;P2;durP2;ratioP2
67757;SDS011;54562;47.620;18.786;2023-06-10T00:02:34;9.70;;;5.20;;
67757;SDS011;54562;47.620;18.786;2023-06-10T00:05:39;13.20;;;5.70;;
67757;SDS011;54562;47.620;18.786;2023-06-10T00:08:46;10.00;;;5.50;;
67757;SDS011;54562;47.620;18.786;2023-06-10T00:11:50;10.60;;;6.10;;
67757;SDS011;54562;47.620;18.786;2023-06-10T00:14:54;11.20;;;5.90;;
67757;SDS011;54562;47.620;18.786;2023-06-10T00:17:58;12.30;;;5.80;;
67757;SDS011;54562;47.620;18.786;2023-06-10T00:21:03;11.00;;;5.90;;
67757;SDS011;54562;47.620;18.786;2023-06-10T00:24:08;11.10;;;6.00;;
67757;SDS011;54562;47.620;18.786;2023-06-10T00:27:14;10.00;;;5.30;;
67757;SDS011;54562;47.620;18.786;2023-06-10T00:30:18;12.70;;;5.80;;
67757;SDS011;54562;47.620;18.786;2023-06-10T00:33:22;10.80;;;5.60;;
67757;SDS011;54562;47.620;18.786;2023-06-10T00:36:26;10.80;;;5.10;;
67757;SDS011;54562;47.620;18.786;2023-06-10T00:39:31;12.30;;;5.10;;
67757;SDS011;54562;47.620;18.786;2023-06-10T00:42:35;12.80;;;5.10;;
67757;SDS011;54562;47.620;18.786;2023-06-10T00:45:39;9.20;;;5.40;;
67757;SDS011;54562;47.620;18.786;2023-06-10T00:48:44;10.40;;;5.90;;
67757;SDS011;54562;47.620;18.786;2023-06-10T00:51:48;9.90;;;6.10;;
67757;SDS011;54562;47.620;18.786;2023-06-10T00:54:52;10.70;;;5.40;;
67757;SDS011;54562;47.620;18.786;2023-06-10T00:57:56;11.10;;;5.60;;
67757;SDS011;54562;47.620;18.786;2023-06-10T01:01:00;10.90;;;5.70;;
67757;SDS011;54562;47.620;18.786;2023-06-10T01:04:06;11.40;;;5.90;;
67757;SDS011;54562;47.620;18.786;2023-06-10T01:07:15;11.00;;;6.30;;
67757;SDS011;54562;47.620;18.786;2023-06-10T01:10:29;11.50;;;6.40;;
67757;SDS011;54562;47.620;18.786;2023-06-10T01:13:37;9.80;;;6.30;;
67757;SDS011;54562;47.620;18.786;2023-06-10T01:16:43;11.00;;;6.80;;
67757;SDS011;54562;47.620;18.786;2023-06-10T01:19:53;11.20;;;6.80;;
67757;SDS011;54562;47.620;18.786;2023-06-10T01:22:58;12.90;;;7.00;;
67757;SDS011;54562;47.620;18.786;2023-06-10T01:26:04;16.10;;;6.90;;
67757;SDS011;54562;47.620;18.786;2023-06-10T01:29:14;16.30;;;7.70;;
67757;SDS011;54562;47.620;18.786;2023-06-10T01:32:21;14.20;;;7.60;;
67757;SDS011;54562;47.620;18.786;2023-06-10T01:35:28;20.40;;;8.20;;
67757;SDS011;54562;47.620;18.786;2023-06-10T01:38:33;18.40;;;7.90;;
67757;SDS011;54562;47.620;18.786;2023-06-10T01:41:39;14.20;;;8.20;;
67757;SDS011;54562;47.620;18.786;2023-06-10T01:44:43;17.80;;;8.50;;
67757;SDS011;54562;47.620;18.786;2023-06-10T01:47:47;18.70;;;8.90;;
67757;SDS011;54562;47.620;18.786;2023-06-10T01:50:51;14.50;;;8.80;;
67757;SDS011;54562;47.620;18.786;2023-06-10T01:53:57;26.10;;;9.60;;
67757;SDS011;54562;47.620;18.786;2023-06-10T01:57:01;25.70;;;8.40;;
67757;SDS011;54562;47.620;18.786;2023-06-10T02:00:09;32.20;;;8.80;;
67757;SDS011;54562;47.620;18.786;2023-06-10T02:03:15;67.30;;;9.20;;
67757;SDS011;54562;47.620;18.786;2023-06-10T02:06:19;54.70;;;9.10;;
67757;SDS011;54562;47.620;18.786;2023-06-10T02:09:23;73.60;;;9.40;;
67757;SDS011;54562;47.620;18.786;2023-06-10T02:12:27;55.70;;;9.90;;
67757;SDS011;54562;47.620;18.786;2023-06-10T02:15:31;30.80;;;8.90;;
67757;SDS011;54562;47.620;18.786;2023-06-10T02:18:35;21.50;;;9.10;;
67757;SDS011;54562;47.620;18.786;2023-06-10T02:21:39;18.80;;;9.60;;
67757;SDS011;54562;47.620;18.786;2023-06-10T02:24:43;20.80;;;9.30;;
67757;SDS011;54562;47.620;18.786;2023-06-10T02:27:47;35.50;;;9.90;;
67757;SDS011;54562;47.620;18.786;2023-06-10T02:30:51;61.10;;;9.80;;
67757;SDS011;54562;47.620;18.786;2023-06-10T02:36:57;106.60;;;10.90;;
67757;SDS011;54562;47.620;18.786;2023-06-10T02:40:01;73.00;;;10.60;;
67757;SDS011;54562;47.620;18.786;2023-06-10T02:43:05;93.10;;;11.10;;
67757;SDS011;54562;47.620;18.786;2023-06-10T02:46:10;112.20;;;11.80;;
67757;SDS011;54562;47.620;18.786;2023-06-10T02:49:14;199.50;;;12.70;;
67757;SDS011;54562;47.620;18.786;2023-06-10T02:52:17;150.00;;;12.80;;
67757;SDS011;54562;47.620;18.786;2023-06-10T02:55:23;139.00;;;11.80;;
67757;SDS011;54562;47.620;18.786;2023-06-10T02:58:28;79.50;;;11.50;;
67757;SDS011;54562;47.620;18.786;2023-06-10T03:01:32;104.50;;;12.50;;
67757;SDS011;54562;47.620;18.786;2023-06-10T03:04:39;109.70;;;11.90;;
67757;SDS011;54562;47.620;18.786;2023-06-10T03:07:45;125.00;;;11.80;;
67757;SDS011;54562;47.620;18.786;2023-06-10T03:10:49;135.80;;;12.50;;
67757;SDS011;54562;47.620;18.786;2023-06-10T03:13:53;151.00;;;12.60;;
67757;SDS011;54562;47.620;18.786;2023-06-10T03:16:57;93.20;;;11.80;;
67757;SDS011;54562;47.620;18.786;2023-06-10T03:23:08;207.70;;;13.20;;
67757;SDS011;54562;47.620;18.786;2023-06-10T03:26:12;354.40;;;15.30;;
67757;SDS011;54562;47.620;18.786;2023-06-10T03:29:17;235.00;;;12.60;;
67757;SDS011;54562;47.620;18.786;2023-06-10T03:32:21;267.90;;;13.60;;
67757;SDS011;54562;47.620;18.786;2023-06-10T03:35:25;190.10;;;12.00;;
67757;SDS011;54562;47.620;18.786;2023-06-10T03:38:29;318.80;;;13.40;;
67757;SDS011;54562;47.620;18.786;2023-06-10T03:41:34;214.70;;;12.70;;
67757;SDS011;54562;47.620;18.786;2023-06-10T03:44:37;175.60;;;11.10;;
67757;SDS011;54562;47.620;18.786;2023-06-10T03:47:42;216.70;;;12.40;;
67757;SDS011;54562;47.620;18.786;2023-06-10T03:50:46;163.70;;;11.30;;
67757;SDS011;54562;47.620;18.786;2023-06-10T03:53:52;138.90;;;10.40;;
67757;SDS011;54562;47.620;18.786;2023-06-10T04:00:07;116.00;;;10.80;;
67757;SDS011;54562;47.620;18.786;2023-06-10T04:03:13;63.70;;;9.80;;
67757;SDS011;54562;47.620;18.786;2023-06-10T04:06:18;17.10;;;10.30;;
67757;SDS011;54562;47.620;18.786;2023-06-10T04:09:22;14.70;;;9.30;;
67757;SDS011;54562;47.620;18.786;2023-06-10T04:12:26;16.20;;;9.50;;
67757;SDS011;54562;47.620;18.786;2023-06-10T04:15:30;13.70;;;8.70;;
67757;SDS011;54562;47.620;18.786;2023-06-10T04:18:35;14.30;;;8.30;;
67757;SDS011;54562;47.620;18.786;2023-06-10T04:21:39;15.40;;;8.90;;
67757;SDS011;54562;47.620;18.786;2023-06-10T04:24:43;14.90;;;8.80;;
67757;SDS011;54562;47.620;18.786;2023-06-10T04:27:48;15.40;;;8.90;;
67757;SDS011;54562;47.620;18.786;2023-06-10T04:30:52;14.30;;;9.00;;
67757;SDS011;54562;47.620;18.786;2023-06-10T04:33:56;14.50;;;9.20;;
67757;SDS011;54562;47.620;18.786;2023-06-10T04:37:00;14.90;;;9.30;;
67757;SDS011;54562;47.620;18.786;2023-06-10T04:40:05;13.60;;;8.50;;
67757;SDS011;54562;47.620;18.786;2023-06-10T04:43:11;12.60;;;7.80;;
67757;SDS011;54562;47.620;18.786;2023-06-10T04:46:15;13.40;;;8.20;;
67757;SDS011;54562;47.620;18.786;2023-06-10T04:49:19;10.90;;;6.90;;
67757;SDS011;54562;47.620;18.786;2023-06-10T04:52:23;9.40;;;6.20;;
67757;SDS011;54562;47.620;18.786;2023-06-10T04:55:27;10.40;;;5.80;;
67757;SDS011;54562;47.620;18.786;2023-06-10T04:58:31;8.90;;;4.50;;
67757;SDS011;54562;47.620;18.786;2023-06-10T05:01:35;7.40;;;4.50;;
67757;SDS011;54562;47.620;18.786;2023-06-10T05:04:39;7.30;;;3.60;;
67757;SDS011;54562;47.620;18.786;2023-06-10T05:07:43;8.10;;;3.90;;
67757;SDS011;54562;47.620;18.786;2023-06-10T05:10:48;6.20;;;3.50;;
67757;SDS011;54562;47.620;18.786;2023-06-10T05:13:52;6.20;;;3.60;;
67757;SDS011;54562;47.620;18.786;2023-06-10T05:16:55;8.80;;;3.60;;
67757;SDS011;54562;47.620;18.786;2023-06-10T05:19:59;6.50;;;3.40;;
67757;SDS011;54562;47.620;18.786;2023-06-10T05:26:20;7.40;;;3.40;;
67757;SDS011;54562;47.620;18.786;2023-06-10T05:29:24;5.80;;;3.30;;
67757;SDS011;54562;47.620;18.786;2023-06-10T05:32:28;6.10;;;3.20;;
67757;SDS011;54562;47.620;18.786;2023-06-10T05:35:32;7.10;;;3.40;;
67757;SDS011;54562;47.620;18.786;2023-06-10T05:38:36;6.50;;;3.40;;
67757;SDS011;54562;47.620;18.786;2023-06-10T05:41:41;7.40;;;3.50;;
67757;SDS011;54562;47.620;18.786;2023-06-10T05:44:45;7.10;;;3.60;;
67757;SDS011;54562;47.620;18.786;2023-06-10T05:47:49;6.30;;;3.60;;
67757;SDS011;54562;47.620;18.786;2023-06-10T05:50:53;5.60;;;3.30;;
67757;SDS011;54562;47.620;18.786;2023-06-10T05:57:31;7.50;;;3.40;;
67757;SDS011;54562;47.620;18.786;2023-06-10T06:00:35;6.40;;;3.50;;
67757;SDS011;54562;47.620;18.786;2023-06-10T06:03:40;6.80;;;3.50;;
67757;SDS011;54562;47.620;18.786;2023-06-10T06:06:44;9.30;;;3.50;;
67757;SDS011;54562;47.620;18.786;2023-06-10T06:09:48;6.20;;;3.40;;
67757;SDS011;54562;47.620;18.786;2023-06-10T06:12:53;6.10;;;3.40;;
67757;SDS011;54562;47.620;18.786;2023-06-10T06:19:05;7.20;;;3.20;;
67757;SDS011;54562;47.620;18.786;2023-06-10T06:22:09;6.40;;;3.50;;
67757;SDS011;54562;47.620;18.786;2023-06-10T06:25:14;5.90;;;3.20;;
67757;SDS011;54562;47.620;18.786;2023-06-10T06:28:18;5.50;;;2.80;;
67757;SDS011;54562;47.620;18.786;2023-06-10T06:31:24;5.40;;;2.80;;
67757;SDS011;54562;47.620;18.786;2023-06-10T06:34:28;5.60;;;2.90;;
67757;SDS011;54562;47.620;18.786;2023-06-10T06:37:32;5.60;;;3.00;;
67757;SDS011;54562;47.620;18.786;2023-06-10T06:40:36;5.60;;;3.00;;
67757;SDS011;54562;47.620;18.786;2023-06-10T06:43:40;5.70;;;3.00;;
67757;SDS011;54562;47.620;18.786;2023-06-10T06:46:45;5.40;;;3.00;;
67757;SDS011;54562;47.620;18.786;2023-06-10T06:49:49;6.00;;;2.80;;
67757;SDS011;54562;47.620;18.786;2023-06-10T06:52:53;5.60;;;2.90;;
67757;SDS011;54562;47.620;18.786;2023-06-10T06:55:57;6.30;;;3.20;;
67757;SDS011;54562;47.620;18.786;2023-06-10T06:59:27;6.20;;;3.20;;
67757;SDS011;54562;47.620;18.786;2023-06-10T07:02:33;5.80;;;3.40;;
67757;SDS011;54562;47.620;18.786;2023-06-10T07:05:40;5.50;;;3.10;;
67757;SDS011;54562;47.620;18.786;2023-06-10T07:08:48;6.60;;;3.10;;
67757;SDS011;54562;47.620;18.786;2023-06-10T07:11:56;6.30;;;3.30;;
67757;SDS011;54562;47.620;18.786;2023-06-10T07:15:02;7.20;;;3.80;;
67757;SDS011;54562;47.620;18.786;2023-06-10T07:18:10;6.90;;;4.00;;
67757;SDS011;54562;47.620;18.786;2023-06-10T07:21:16;9.00;;;4.30;;
67757;SDS011;54562;47.620;18.786;2023-06-10T07:24:23;6.50;;;4.40;;
67757;SDS011;54562;47.620;18.786;2023-06-10T07:27:29;7.80;;;4.80;;
67757;SDS011;54562;47.620;18.786;2023-06-10T07:30:36;6.60;;;4.10;;
67757;SDS011;54562;47.620;18.786;2023-06-10T07:33:44;21.30;;;7.30;;
67757;SDS011;54562;47.620;18.786;2023-06-10T07:36:50;8.00;;;4.40;;
67757;SDS011;54562;47.620;18.786;2023-06-10T07:39:57;9.90;;;4.50;;
67757;SDS011;54562;47.620;18.786;2023-06-10T07:43:04;7.30;;;4.40;;
67757;SDS011;54562;47.620;18.786;2023-06-10T07:46:11;7.80;;;4.90;;
67757;SDS011;54562;47.620;18.786;2023-06-10T07:49:19;7.40;;;4.70;;
67757;SDS011;54562;47.620;18.786;2023-06-10T07:52:26;7.20;;;4.60;;
67757;SDS011;54562;47.620;18.786;2023-06-10T07:55:33;6.90;;;4.00;;
67757;SDS011;54562;47.620;18.786;2023-06-10T07:58:39;6.60;;;3.70;;
67757;SDS011;54562;47.620;18.786;2023-06-10T08:01:46;6.20;;;4.00;;
67757;SDS011;54562;47.620;18.786;2023-06-10T08:04:53;6.40;;;4.20;;
67757;SDS011;54562;47.620;18.786;2023-06-10T08:07:59;7.90;;;4.50;;
67757;SDS011;54562;47.620;18.786;2023-06-10T08:11:06;7.10;;;4.40;;
67757;SDS011;54562;47.620;18.786;2023-06-10T08:14:12;8.00;;;4.60;;
67757;SDS011;54562;47.620;18.786;2023-06-10T08:17:20;6.20;;;4.00;;
67757;SDS011;54562;47.620;18.786;2023-06-10T08:20:27;8.00;;;4.40;;
67757;SDS011;54562;47.620;18.786;2023-06-10T08:23:34;7.60;;;4.00;;
67757;SDS011;54562;47.620;18.786;2023-06-10T08:26:40;6.40;;;4.20;;
67757;SDS011;54562;47.620;18.786;2023-06-10T08:29:47;7.30;;;3.90;;
67757;SDS011;54562;47.620;18.786;2023-06-10T08:32:54;6.60;;;4.30;;
67757;SDS011;54562;47.620;18.786;2023-06-10T08:36:01;6.80;;;4.10;;
67757;SDS011;54562;47.620;18.786;2023-06-10T08:39:08;6.00;;;3.90;;
67757;SDS011;54562;47.620;18.786;2023-06-10T08:42:17;7.10;;;4.40;;
67757;SDS011;54562;47.620;18.786;2023-06-10T08:45:30;5.90;;;3.80;;
67757;SDS011;54562;47.620;18.786;2023-06-10T08:48:39;7.30;;;4.30;;
67757;SDS011;54562;47.620;18.786;2023-06-10T08:51:49;7.40;;;4.00;;
67757;SDS011;54562;47.620;18.786;2023-06-10T08:54:56;6.70;;;4.40;;
67757;SDS011;54562;47.620;18.786;2023-06-10T08:58:03;6.80;;;4.10;;
67757;SDS011;54562;47.620;18.786;2023-06-10T09:01:10;8.50;;;4.40;;
67757;SDS011;54562;47.620;18.786;2023-06-10T09:04:16;7.30;;;4.40;;
67757;SDS011;54562;47.620;18.786;2023-06-10T09:07:24;9.60;;;4.40;;
67757;SDS011;54562;47.620;18.786;2023-06-10T09:10:31;7.00;;;4.40;;
67757;SDS011;54562;47.620;18.786;2023-06-10T09:13:39;9.30;;;4.40;;
67757;SDS011;54562;47.620;18.786;2023-06-10T09:16:45;7.80;;;4.10;;
67757;SDS011;54562;47.620;18.786;2023-06-10T09:19:53;7.70;;;4.10;;
67757;SDS011;54562;47.620;18.786;2023-06-10T09:23:00;7.00;;;4.10;;
67757;SDS011;54562;47.620;18.786;2023-06-10T09:26:09;8.50;;;4.30;;
67757;SDS011;54562;47.620;18.786;2023-06-10T09:29:15;7.60;;;4.20;;
67757;SDS011;54562;47.620;18.786;2023-06-10T09:32:20;8.10;;;4.00;;
67757;SDS011;54562;47.620;18.786;2023-06-10T09:35:27;6.40;;;3.80;;
67757;SDS011;54562;47.620;18.786;2023-06-10T09:38:34;6.90;;;3.90;;
67757;SDS011;54562;47.620;18.786;2023-06-10T09:41:41;8.60;;;4.40;;
67757;SDS011;54562;47.620;18.786;2023-06-10T09:44:50;6.80;;;3.90;;
67757;SDS011;54562;47.620;18.786;2023-06-10T09:47:57;7.50;;;3.90;;
67757;SDS011;54562;47.620;18.786;2023-06-10T09:51:04;7.50;;;4.30;;
67757;SDS011;54562;47.620;18.786;2023-06-10T09:54:14;7.10;;;4.00;;
67757;SDS011;54562;47.620;18.786;2023-06-10T09:57:21;7.20;;;3.90;;
67757;SDS011;54562;47.620;18.786;2023-06-10T10:00:31;8.30;;;3.70;;
67757;SDS011;54562;47.620;18.786;2023-06-10T10:03:45;5.80;;;3.40;;
67757;SDS011;54562;47.620;18.786;2023-06-10T10:06:52;5.70;;;3.60;;
67757;SDS011;54562;47.620;18.786;2023-06-10T10:09:59;6.00;;;3.30;;
67757;SDS011;54562;47.620;18.786;2023-06-10T10:13:07;6.70;;;3.50;;
67757;SDS011;54562;47.620;18.786;2023-06-10T10:16:14;7.70;;;3.80;;
67757;SDS011;54562;47.620;18.786;2023-06-10T10:19:23;6.50;;;3.60;;
67757;SDS011;54562;47.620;18.786;2023-06-10T10:22:35;8.30;;;4.00;;
67757;SDS011;54562;47.620;18.786;2023-06-10T10:25:42;6.80;;;3.50;;
67757;SDS011;54562;47.620;18.786;2023-06-10T10:28:51;5.20;;;3.20;;
67757;SDS011;54562;47.620;18.786;2023-06-10T10:32:08;7.60;;;3.70;;
67757;SDS011;54562;47.620;18.786;2023-06-10T10:35:17;6.50;;;3.80;;
67757;SDS011;54562;47.620;18.786;2023-06-10T10:38:26;5.80;;;3.60;;
67757;SDS011;54562;47.620;18.786;2023-06-10T10:41:34;5.90;;;3.20;;
67757;SDS011;54562;47.620;18.786;2023-06-10T10:44:42;5.10;;;3.00;;
67757;SDS011;54562;47.620;18.786;2023-06-10T10:47:51;6.00;;;3.50;;
67757;SDS011;54562;47.620;18.786;2023-06-10T10:50:58;5.90;;;3.60;;
67757;SDS011;54562;47.620;18.786;2023-06-10T10:54:11;6.70;;;3.50;;
67757;SDS011;54562;47.620;18.786;2023-06-10T10:57:18;6.30;;;3.20;;
67757;SDS011;54562;47.620;18.786;2023-06-10T11:00:29;6.00;;;3.70;;
67757;SDS011;54562;47.620;18.786;2023-06-10T11:03:41;6.40;;;3.40;;
67757;SDS011;54562;47.620;18.786;2023-06-10T11:06:54;7.10;;;3.50;;
67757;SDS011;54562;47.620;18.786;2023-06-10T11:10:03;6.20;;;3.50;;
67757;SDS011;54562;47.620;18.786;2023-06-10T11:13:14;5.50;;;3.20;;
67757;SDS011;54562;47.620;18.786;2023-06-10T11:16:24;6.80;;;3.00;;
67757;SDS011;54562;47.620;18.786;2023-06-10T11:19:35;5.80;;;3.40;;
67757;SDS011;54562;47.620;18.786;2023-06-10T11:29:26;9.40;;;3.40;;
67757;SDS011;54562;47.620;18.786;2023-06-10T11:32:33;5.50;;;3.10;;
67757;SDS011;54562;47.620;18.786;2023-06-10T11:35:40;8.80;;;3.10;;
67757;SDS011;54562;47.620;18.786;2023-06-10T11:38:47;5.80;;;3.20;;
67757;SDS011;54562;47.620;18.786;2023-06-10T11:41:55;6.20;;;3.20;;
67757;SDS011;54562;47.620;18.786;2023-06-10T11:45:03;6.60;;;3.30;;
67757;SDS011;54562;47.620;18.786;2023-06-10T11:48:13;5.60;;;3.20;;
67757;SDS011;54562;47.620;18.786;2023-06-10T11:51:19;5.20;;;3.00;;
67757;SDS011;54562;47.620;18.786;2023-06-10T11:54:26;5.60;;;2.90;;
67757;SDS011;54562;47.620;18.786;2023-06-10T11:57:35;5.30;;;2.70;;
67757;SDS011;54562;47.620;18.786;2023-06-10T12:00:45;5.40;;;2.70;;
67757;SDS011;54562;47.620;18.786;2023-06-10T12:03:59;5.60;;;2.90;;
67757;SDS011;54562;47.620;18.786;2023-06-10T12:07:07;5.70;;;2.90;;
67757;SDS011;54562;47.620;18.786;2023-06-10T12:10:15;6.30;;;2.90;;
67757;SDS011;54562;47.620;18.786;2023-06-10T12:13:29;5.70;;;2.90;;
67757;SDS011;54562;47.620;18.786;2023-06-10T12:16:36;6.20;;;3.00;;
67757;SDS011;54562;47.620;18.786;2023-06-10T12:19:42;5.20;;;2.80;;
67757;SDS011;54562;47.620;18.786;2023-06-10T12:22:48;6.80;;;3.10;;
67757;SDS011;54562;47.620;18.786;2023-06-10T12:25:55;6.00;;;3.20;;
67757;SDS011;54562;47.620;18.786;2023-06-10T12:29:02;5.30;;;2.90;;
67757;SDS011;54562;47.620;18.786;2023-06-10T12:32:19;5.80;;;3.00;;
67757;SDS011;54562;47.620;18.786;2023-06-10T12:35:30;6.20;;;3.00;;
67757;SDS011;54562;47.620;18.786;2023-06-10T12:38:36;5.30;;;3.00;;
67757;SDS011;54562;47.620;18.786;2023-06-10T12:44:54;8.90;;;3.20;;
67757;SDS011;54562;47.620;18.786;2023-06-10T12:48:07;6.60;;;3.40;;
67757;SDS011;54562;47.620;18.786;2023-06-10T12:51:15;5.20;;;3.00;;
67757;SDS011;54562;47.620;18.786;2023-06-10T12:54:23;5.30;;;3.10;;
67757;SDS011;54562;47.620;18.786;2023-06-10T12:57:30;12.70;;;7.70;;
67757;SDS011;54562;47.620;18.786;2023-06-10T13:00:36;6.10;;;3.50;;
67757;SDS011;54562;47.620;18.786;2023-06-10T13:03:45;5.50;;;3.40;;
67757;SDS011;54562;47.620;18.786;2023-06-10T13:06:51;5.70;;;3.10;;
67757;SDS011;54562;47.620;18.786;2023-06-10T13:09:58;6.20;;;2.80;;
67757;SDS011;54562;47.620;18.786;2023-06-10T13:13:05;5.60;;;2.60;;
67757;SDS011;54562;47.620;18.786;2023-06-10T13:16:13;5.50;;;2.90;;
67757;SDS011;54562;47.620;18.786;2023-06-10T13:19:20;4.90;;;2.60;;
67757;SDS011;54562;47.620;18.786;2023-06-10T13:22:26;4.80;;;2.70;;
67757;SDS011;54562;47.620;18.786;2023-06-10T13:25:33;5.60;;;2.80;;
67757;SDS011;54562;47.620;18.786;2023-06-10T13:28:39;5.50;;;3.00;;
67757;SDS011;54562;47.620;18.786;2023-06-10T13:31:46;4.60;;;2.40;;
67757;SDS011;54562;47.620;18.786;2023-06-10T13:34:52;5.30;;;2.40;;
67757;SDS011;54562;47.620;18.786;2023-06-10T13:38:00;6.80;;;2.80;;
67757;SDS011;54562;47.620;18.786;2023-06-10T13:41:06;5.10;;;2.70;;
67757;SDS011;54562;47.620;18.786;2023-06-10T13:44:13;4.60;;;2.60;;
67757;SDS011;54562;47.620;18.786;2023-06-10T13:47:20;5.00;;;2.60;;
67757;SDS011;54562;47.620;18.786;2023-06-10T13:50:29;4.60;;;2.50;;
67757;SDS011;54562;47.620;18.786;2023-06-10T13:53:35;7.00;;;2.70;;
67757;SDS011;54562;47.620;18.786;2023-06-10T13:56:42;4.60;;;2.60;;
67757;SDS011;54562;47.620;18.786;2023-06-10T13:59:48;5.10;;;2.70;;
67757;SDS011;54562;47.620;18.786;2023-06-10T14:02:55;4.50;;;2.30;;
67757;SDS011;54562;47.620;18.786;2023-06-10T14:06:01;5.00;;;2.70;;
67757;SDS011;54562;47.620;18.786;2023-06-10T14:09:08;6.20;;;2.80;;
67757;SDS011;54562;47.620;18.786;2023-06-10T14:12:14;5.40;;;2.60;;
67757;SDS011;54562;47.620;18.786;2023-06-10T14:15:20;5.10;;;2.60;;
67757;SDS011;54562;47.620;18.786;2023-06-10T14:18:27;6.50;;;2.70;;
67757;SDS011;54562;47.620;18.786;2023-06-10T14:21:34;5.00;;;2.50;;
67757;SDS011;54562;47.620;18.786;2023-06-10T14:24:39;5.20;;;2.90;;
67757;SDS011;54562;47.620;18.786;2023-06-10T14:27:47;5.40;;;2.80;;
67757;SDS011;54562;47.620;18.786;2023-06-10T14:30:53;4.80;;;2.70;;
67757;SDS011;54562;47.620;18.786;2023-06-10T14:34:01;6.20;;;3.00;;
67757;SDS011;54562;47.620;18.786;2023-06-10T14:37:09;6.10;;;3.00;;
67757;SDS011;54562;47.620;18.786;2023-06-10T14:40:16;6.10;;;2.90;;
67757;SDS011;54562;47.620;18.786;2023-06-10T14:43:24;11.70;;;3.00;;
67757;SDS011;54562;47.620;18.786;2023-06-10T14:46:31;6.50;;;2.80;;
67757;SDS011;54562;47.620;18.786;2023-06-10T14:49:37;7.60;;;3.00;;
67757;SDS011;54562;47.620;18.786;2023-06-10T14:52:47;5.80;;;2.80;;
67757;SDS011;54562;47.620;18.786;2023-06-10T14:55:53;7.40;;;3.10;;
67757;SDS011;54562;47.620;18.786;2023-06-10T14:59:00;5.50;;;2.60;;
67757;SDS011;54562;47.620;18.786;2023-06-10T15:02:07;5.40;;;2.80;;
67757;SDS011;54562;47.620;18.786;2023-06-10T15:05:14;6.50;;;2.70;;
67757;SDS011;54562;47.620;18.786;2023-06-10T15:08:22;6.20;;;3.00;;
67757;SDS011;54562;47.620;18.786;2023-06-10T15:11:28;6.30;;;2.90;;
67757;SDS011;54562;47.620;18.786;2023-06-10T15:14:35;8.30;;;3.00;;
67757;SDS011;54562;47.620;18.786;2023-06-10T15:17:41;5.50;;;3.00;;
67757;SDS011;54562;47.620;18.786;2023-06-10T15:20:49;5.30;;;3.20;;
67757;SDS011;54562;47.620;18.786;2023-06-10T15:23:55;6.10;;;3.30;;
67757;SDS011;54562;47.620;18.786;2023-06-10T15:27:02;7.60;;;3.30;;
67757;SDS011;54562;47.620;18.786;2023-06-10T15:30:10;5.70;;;3.20;;
67757;SDS011;54562;47.620;18.786;2023-06-10T15:33:16;7.70;;;3.20;;
67757;SDS011;54562;47.620;18.786;2023-06-10T15:36:23;5.80;;;3.30;;
67757;SDS011;54562;47.620;18.786;2023-06-10T15:39:30;7.50;;;3.30;;
67757;SDS011;54562;47.620;18.786;2023-06-10T15:42:37;6.20;;;3.50;;
67757;SDS011;54562;47.620;18.786;2023-06-10T15:45:44;6.90;;;3.50;;
67757;SDS011;54562;47.620;18.786;2023-06-10T15:48:50;5.80;;;3.40;;
67757;SDS011;54562;47.620;18.786;2023-06-10T15:51:57;6.60;;;3.40;;
67757;SDS011;54562;47.620;18.786;2023-06-10T15:55:04;6.90;;;3.70;;
67757;SDS011;54562;47.620;18.786;2023-06-10T15:58:13;7.20;;;3.80;;
67757;SDS011;54562;47.620;18.786;2023-06-10T16:01:21;7.40;;;3.50;;
67757;SDS011;54562;47.620;18.786;2023-06-10T16:04:28;7.70;;;3.40;;
67757;SDS011;54562;47.620;18.786;2023-06-10T16:07:36;7.10;;;3.70;;
67757;SDS011;54562;47.620;18.786;2023-06-10T16:10:43;6.10;;;3.60;;
67757;SDS011;54562;47.620;18.786;2023-06-10T16:13:50;8.30;;;3.90;;
67757;SDS011;54562;47.620;18.786;2023-06-10T16:16:57;6.90;;;3.70;;
67757;SDS011;54562;47.620;18.786;2023-06-10T16:20:05;7.40;;;3.40;;
67757;SDS011;54562;47.620;18.786;2023-06-10T16:23:35;7.80;;;3.90;;
67757;SDS011;54562;47.620;18.786;2023-06-10T16:26:44;6.30;;;3.80;;
67757;SDS011;54562;47.620;18.786;2023-06-10T16:29:52;7.20;;;3.90;;
67757;SDS011;54562;47.620;18.786;2023-06-10T16:33:05;26.90;;;8.30;;
67757;SDS011;54562;47.620;18.786;2023-06-10T16:36:15;15.40;;;6.70;;
67757;SDS011;54562;47.620;18.786;2023-06-10T16:39:22;11.00;;;4.70;;
67757;SDS011;54562;47.620;18.786;2023-06-10T16:42:30;7.30;;;4.10;;
67757;SDS011;54562;47.620;18.786;2023-06-10T16:45:37;5.90;;;3.60;;
67757;SDS011;54562;47.620;18.786;2023-06-10T16:48:46;9.00;;;4.40;;
67757;SDS011;54562;47.620;18.786;2023-06-10T16:52:02;8.40;;;4.10;;
67757;SDS011;54562;47.620;18.786;2023-06-10T16:55:10;7.00;;;4.40;;
67757;SDS011;54562;47.620;18.786;2023-06-10T16:58:17;12.10;;;4.20;;
67757;SDS011;54562;47.620;18.786;2023-06-10T17:01:24;7.50;;;4.40;;
67757;SDS011;54562;47.620;18.786;2023-06-10T17:04:33;8.10;;;4.60;;
67757;SDS011;54562;47.620;18.786;2023-06-10T17:07:42;7.20;;;4.50;;
67757;SDS011;54562;47.620;18.786;2023-06-10T17:11:13;10.60;;;4.80;;
67757;SDS011;54562;47.620;18.786;2023-06-10T17:14:27;83.50;;;7.80;;
67757;SDS011;54562;47.620;18.786;2023-06-10T17:17:47;7.80;;;4.80;;
67757;SDS011;54562;47.620;18.786;2023-06-10T17:21:22;9.30;;;4.80;;
67757;SDS011;54562;47.620;18.786;2023-06-10T17:24:30;7.90;;;5.00;;
67757;SDS011;54562;47.620;18.786;2023-06-10T17:27:37;7.70;;;5.00;;
67757;SDS011;54562;47.620;18.786;2023-06-10T17:30:43;10.60;;;5.20;;
67757;SDS011;54562;47.620;18.786;2023-06-10T17:33:50;9.20;;;5.00;;
67757;SDS011;54562;47.620;18.786;2023-06-10T17:36:57;14.00;;;5.40;;
67757;SDS011;54562;47.620;18.786;2023-06-10T17:40:12;8.70;;;4.90;;
67757;SDS011;54562;47.620;18.786;2023-06-10T17:43:19;9.30;;;5.20;;
67757;SDS011;54562;47.620;18.786;2023-06-10T17:46:28;10.00;;;5.00;;
67757;SDS011;54562;47.620;18.786;2023-06-10T17:49:34;9.60;;;5.10;;
67757;SDS011;54562;47.620;18.786;2023-06-10T17:52:42;9.40;;;4.70;;
67757;SDS011;54562;47.620;18.786;2023-06-10T17:55:56;8.90;;;4.90;;
67757;SDS011;54562;47.620;18.786;2023-06-10T17:59:07;9.00;;;4.90;;
67757;SDS011;54562;47.620;18.786;2023-06-10T18:02:15;11.20;;;5.00;;
67757;SDS011;54562;47.620;18.786;2023-06-10T18:05:26;7.50;;;4.30;;
67757;SDS011;54562;47.620;18.786;2023-06-10T18:08:32;8.20;;;4.90;;
67757;SDS011;54562;47.620;18.786;2023-06-10T18:11:40;8.50;;;4.80;;
67757;SDS011;54562;47.620;18.786;2023-06-10T18:14:47;7.60;;;4.80;;
67757;SDS011;54562;47.620;18.786;2023-06-10T18:17:56;7.50;;;4.70;;
67757;SDS011;54562;47.620;18.786;2023-06-10T18:21:02;8.10;;;4.70;;
67757;SDS011;54562;47.620;18.786;2023-06-10T18:24:12;8.20;;;5.00;;
67757;SDS011;54562;47.620;18.786;2023-06-10T18:27:20;8.30;;;4.70;;
67757;SDS011;54562;47.620;18.786;2023-06-10T18:30:26;8.30;;;5.20;;
67757;SDS011;54562;47.620;18.786;2023-06-10T18:33:34;9.70;;;4.90;;
67757;SDS011;54562;47.620;18.786;2023-06-10T18:36:41;7.60;;;5.20;;
67757;SDS011;54562;47.620;18.786;2023-06-10T18:39:48;9.80;;;5.20;;
67757;SDS011;54562;47.620;18.786;2023-06-10T18:42:55;9.90;;;5.30;;
67757;SDS011;54562;47.620;18.786;2023-06-10T18:46:17;9.00;;;5.20;;
67757;SDS011;54562;47.620;18.786;2023-06-10T18:49:27;7.50;;;5.00;;
67757;SDS011;54562;47.620;18.786;2023-06-10T18:52:41;9.40;;;5.80;;